createdAt,value
2024-05-09T00:00:26.365Z,101166.32
2024-05-09T00:02:44.025Z,101166.83
2024-05-09T00:04:49.632Z,101166.76
2024-05-09T00:06:55.253Z,101169.08
2024-05-09T00:09:00.641Z,101165.09
2024-05-09T00:11:06.291Z,101167.27
2024-05-09T00:13:12.647Z,101169.17
2024-05-09T00:15:17.991Z,101166.44
2024-05-09T00:17:23.712Z,101162.37
2024-05-09T00:19:29.600Z,101158.48
2024-05-09T00:21:35.230Z,101162.23
2024-05-09T00:23:40.753Z,101161.31
2024-05-09T00:25:46.534Z,101165.45
2024-05-09T00:27:52.055Z,101166.09
2024-05-09T00:29:57.457Z,101165.96
2024-05-09T00:32:03.399Z,101166.27
2024-05-09T00:34:09.255Z,101164.36
2024-05-09T00:36:14.854Z,101166.34
2024-05-09T00:38:20.392Z,101163.95
2024-05-09T00:40:40.809Z,101161.17
2024-05-09T00:42:48.165Z,101165.13
2024-05-09T00:44:53.611Z,101158.68
2024-05-09T00:46:59.049Z,101158.03
2024-05-09T00:49:04.536Z,101159.33
2024-05-09T00:51:10.268Z,101155.47
2024-05-09T00:53:16.413Z,101153.96
2024-05-09T00:55:21.939Z,101150.27
2024-05-09T00:57:27.371Z,101148.05
2024-05-09T00:59:32.977Z,101152.48
2024-05-09T01:01:38.886Z,101147.05
2024-05-09T01:03:46.551Z,101150.12
2024-05-09T01:05:55.992Z,101150.35
2024-05-09T01:08:01.939Z,101151.16
2024-05-09T01:10:14.303Z,101153.59
2024-05-09T01:12:36.376Z,101151.47
2024-05-09T01:14:41.825Z,101145.83
2024-05-09T01:16:47.253Z,101147.09
2024-05-09T01:18:52.957Z,101144.15
2024-05-09T01:20:58.564Z,101142.64
2024-05-09T01:23:04.131Z,101140.69
2024-05-09T01:25:09.596Z,101142.53
2024-05-09T01:27:14.980Z,101144.94
2024-05-09T01:29:20.559Z,101141.53
2024-05-09T01:31:26.056Z,101145.52
2024-05-09T01:33:31.986Z,101150.54
2024-05-09T01:35:38.155Z,101146.67
2024-05-09T01:37:43.982Z,101150.11
2024-05-09T01:39:49.272Z,101150.45
2024-05-09T01:41:54.517Z,101148.47
2024-05-09T01:44:00.142Z,101148.81
2024-05-09T01:46:05.779Z,101143.83
2024-05-09T01:48:12.690Z,101146.89
2024-05-09T01:50:34.243Z,101152.66
2024-05-09T01:52:47.452Z,101155.81
2024-05-09T01:54:52.929Z,101159.97
2024-05-09T01:56:58.381Z,101162.25
2024-05-09T01:59:03.934Z,101158.56
2024-05-09T02:01:09.407Z,101161.22
2024-05-09T02:03:18.693Z,101153.54
2024-05-09T02:05:24.798Z,101158.69
2024-05-09T02:07:30.388Z,101160.45
2024-05-09T02:09:35.829Z,101162.63
2024-05-09T02:11:41.382Z,101166.15
2024-05-09T02:13:47.139Z,101163.78
2024-05-09T02:15:52.572Z,101161.49
2024-05-09T02:17:58.651Z,101166.64
2024-05-09T02:20:05.928Z,101165
2024-05-09T02:22:17.380Z,101168.05
2024-05-09T02:24:22.818Z,101164.23
2024-05-09T02:26:28.367Z,101167.81
2024-05-09T02:28:33.910Z,101171.87
2024-05-09T02:30:43.009Z,101167.02
2024-05-09T02:32:48.717Z,101167.09
2024-05-09T02:34:54.602Z,101170.57
2024-05-09T02:37:00.073Z,101165.48
2024-05-09T02:39:05.518Z,101164.63
2024-05-09T02:41:11.021Z,101164.02
2024-05-09T02:43:16.703Z,101159.84
2024-05-09T02:45:22.040Z,101157.28
2024-05-09T02:47:27.791Z,101158.13
2024-05-09T02:49:33.800Z,101159.18
2024-05-09T02:51:39.428Z,101158.02
2024-05-09T02:53:44.802Z,101167.02
2024-05-09T02:55:50.260Z,101169.02
2024-05-09T02:57:55.701Z,101167.11
2024-05-09T03:00:01.169Z,101170.81
2024-05-09T03:02:07.681Z,101165.25
2024-05-09T03:04:13.283Z,101169.3
2024-05-09T03:06:18.691Z,101167.63
2024-05-09T03:08:24.193Z,101169.39
2024-05-09T03:10:35.443Z,101172.17
2024-05-09T03:12:43.951Z,101166.52
2024-05-09T03:14:49.479Z,101162.95
2024-05-09T03:18:07.959Z,101172.17
2024-05-09T03:20:30.467Z,101168.81
2024-05-09T03:22:40.921Z,101169.89
2024-05-09T03:24:46.469Z,101174.72
2024-05-09T03:26:51.807Z,101178.89
2024-05-09T03:28:57.281Z,101179.13
2024-05-09T03:31:02.628Z,101179.11
2024-05-09T03:33:08.436Z,101181.4
2024-05-09T03:35:14.633Z,101181.4
2024-05-09T03:37:20.108Z,101181.37
2024-05-09T03:39:25.484Z,101183.8
2024-05-09T03:41:31.012Z,101186.86
2024-05-09T03:43:36.655Z,101184.48
2024-05-09T03:45:42.095Z,101179.89
2024-05-09T03:47:48.318Z,101182.01
2024-05-09T03:49:54.016Z,101182.22
2024-05-09T03:51:59.440Z,101178.26
2024-05-09T03:54:04.969Z,101177.79
2024-05-09T03:56:10.791Z,101179.6
2024-05-09T03:58:16.364Z,101179.44
2024-05-09T04:00:38.201Z,101180.44
2024-05-09T04:02:45.730Z,101183.03
2024-05-09T04:04:51.647Z,101187.64
2024-05-09T04:06:57.281Z,101189.16
2024-05-09T04:09:02.720Z,101189.41
2024-05-09T04:11:08.193Z,101187.25
2024-05-09T04:13:13.822Z,101185.52
2024-05-09T04:15:19.239Z,101193.44
2024-05-09T04:17:24.617Z,101187.61
2024-05-09T04:19:30.705Z,101187.27
2024-05-09T04:21:36.389Z,101186.35
2024-05-09T04:23:42.068Z,101189.02
2024-05-09T04:25:47.714Z,101184.41
2024-05-09T04:27:53.220Z,101184.82
2024-05-09T04:29:58.553Z,101186.94
2024-05-09T04:32:04.204Z,101181.34
2024-05-09T04:34:10.044Z,101185.58
2024-05-09T04:36:15.799Z,101185.98
2024-05-09T04:38:21.526Z,101186.4
2024-05-09T04:40:36.862Z,101184.25
2024-05-09T04:42:43.279Z,101185.69
2024-05-09T04:44:48.718Z,101187.7
2024-05-09T04:46:54.288Z,101186.16
2024-05-09T04:48:59.953Z,101189.41
2024-05-09T04:51:05.949Z,101190.94
2024-05-09T04:53:12.992Z,101190.02
2024-05-09T04:55:18.480Z,101186.77
2024-05-09T04:57:23.926Z,101186.88
2024-05-09T04:59:29.347Z,101187.14
2024-05-09T05:01:34.890Z,101187.08
2024-05-09T05:03:41.098Z,101184.79
2024-05-09T05:05:47.714Z,101184.79
2024-05-09T05:07:53.297Z,101185.03
2024-05-09T05:09:58.713Z,101191.31
2024-05-09T05:12:04.304Z,101190.91
2024-05-09T05:14:09.904Z,101191.22
2024-05-09T05:16:15.393Z,101189.41
2024-05-09T05:18:21.478Z,101185.34
2024-05-09T05:20:34.689Z,101186.01
2024-05-09T05:22:40.376Z,101189.31
2024-05-09T05:24:45.808Z,101187.09
2024-05-09T05:26:51.348Z,101185.27
2024-05-09T05:28:56.815Z,101181.56
2024-05-09T05:31:02.288Z,101175.66
2024-05-09T05:33:08.384Z,101180.23
2024-05-09T05:35:14.014Z,101176.59
2024-05-09T05:37:19.574Z,101185.38
2024-05-09T05:39:25.128Z,101182.84
2024-05-09T05:41:30.775Z,101181.51
2024-05-09T05:43:36.313Z,101181.05
2024-05-09T05:45:41.741Z,101177.92
2024-05-09T05:47:47.736Z,101184.92
2024-05-09T05:49:53.465Z,101186.44
2024-05-09T05:51:59.094Z,101190.06
2024-05-09T05:54:04.534Z,101188
2024-05-09T05:56:09.959Z,101190.61
2024-05-09T05:58:15.530Z,101186.51
2024-05-09T06:00:37.169Z,101188.91
2024-05-09T06:02:46.512Z,101190.55
2024-05-09T06:04:52.499Z,101190.31
2024-05-09T06:06:58.069Z,101192.84
2024-05-09T06:09:03.497Z,101194.78
2024-05-09T06:11:08.913Z,101194.38
2024-05-09T06:13:15.751Z,101196.48
2024-05-09T06:15:21.158Z,101198.36
2024-05-09T06:17:26.771Z,101197.71
2024-05-09T06:19:32.834Z,101205.2
2024-05-09T06:21:38.401Z,101199.28
2024-05-09T06:23:43.885Z,101203.64
2024-05-09T06:25:49.289Z,101208.31
2024-05-09T06:27:54.717Z,101204.83
2024-05-09T06:30:00.191Z,101207.4
2024-05-09T06:32:05.959Z,101204.47
2024-05-09T06:34:12.142Z,101202.11
2024-05-09T06:36:17.821Z,101200.88
2024-05-09T06:38:23.511Z,101199.28
2024-05-09T06:40:39.875Z,101197.21
2024-05-09T06:42:48.479Z,101201.55
2024-05-09T06:44:53.920Z,101202.1
2024-05-09T06:47:01.369Z,101204.52
2024-05-09T06:49:07.428Z,101204.03
2024-05-09T06:51:13.564Z,101201.8
2024-05-09T06:53:19.444Z,101198.55
2024-05-09T06:55:25.187Z,101194.49
2024-05-09T06:57:30.680Z,101194.79
2024-05-09T06:59:36.123Z,101197.5
2024-05-09T07:01:41.960Z,101191.66
2024-05-09T07:03:47.507Z,101198.08
2024-05-09T07:05:53.449Z,101201
2024-05-09T07:07:58.914Z,101197.33
2024-05-09T07:10:07.741Z,101194.88
2024-05-09T07:12:22.269Z,101196.26
2024-05-09T07:14:28.011Z,101204.5
2024-05-09T07:16:33.755Z,101196.28
2024-05-09T07:18:39.438Z,101197.05
2024-05-09T07:20:45.401Z,101192.3
2024-05-09T07:22:51.733Z,101188.59
2024-05-09T07:24:57.264Z,101190.3
2024-05-09T07:27:02.913Z,101189.92
2024-05-09T07:29:08.262Z,101189.77
2024-05-09T07:31:13.794Z,101191.36
2024-05-09T07:33:20.983Z,101191.05
2024-05-09T07:35:29.460Z,101190.58
2024-05-09T07:37:35.641Z,101186.55
2024-05-09T07:39:41.146Z,101187.99
2024-05-09T07:41:46.664Z,101188.27
2024-05-09T07:43:52.087Z,101190.63
2024-05-09T07:46:17.076Z,101185.95
2024-05-09T07:53:36.878Z,101187.95
2024-05-09T07:55:54.115Z,101177.91
2024-05-09T07:58:00.819Z,101179.61
2024-05-09T08:00:08.230Z,101178.48
2024-05-09T08:02:21.910Z,101174.36
2024-05-09T08:04:28.163Z,101176.09
2024-05-09T08:06:33.807Z,101176.23
2024-05-09T08:08:39.222Z,101174.36
2024-05-09T08:10:44.990Z,101173.5
2024-05-09T08:12:50.797Z,101176.88
2024-05-09T08:14:56.214Z,101174.16
2024-05-09T08:17:01.622Z,101178.59
2024-05-09T08:19:07.342Z,101179.81
2024-05-09T08:21:13.093Z,101183.67
2024-05-09T08:23:18.547Z,101179.58
2024-05-09T08:25:23.958Z,101179.44
2024-05-09T08:27:29.572Z,101172.2
2024-05-09T08:29:35.062Z,101179.67
2024-05-09T08:31:40.764Z,101175.64
2024-05-09T08:33:47.030Z,101172.16
2024-05-09T08:35:53.023Z,101171.75
2024-05-09T08:37:58.840Z,101177.52
2024-05-09T08:40:08.521Z,101177.71
2024-05-09T08:42:28.470Z,101178.7
2024-05-09T08:44:34.046Z,101173.48
2024-05-09T08:46:39.493Z,101174.41
2024-05-09T08:48:45.332Z,101176.43
2024-05-09T08:50:51.474Z,101172.27
2024-05-09T08:52:57.040Z,101168.99
2024-05-09T08:55:02.588Z,101171.14
2024-05-09T08:57:08.018Z,101168.34
2024-05-09T08:59:13.486Z,101165.2
2024-05-09T09:01:19.194Z,101167.69
2024-05-09T09:03:25.025Z,101170.94
2024-05-09T09:05:31.247Z,101174.28
2024-05-09T09:07:37.319Z,101178.9
2024-05-09T09:09:42.910Z,101179.41
2024-05-09T09:11:48.548Z,101169.58
2024-05-09T09:13:53.999Z,101180.09
2024-05-09T09:16:00.742Z,101177.98
2024-05-09T09:18:10.625Z,101176.14
2024-05-09T09:20:33.233Z,101178.36
2024-05-09T09:22:41.526Z,101168.5
2024-05-09T09:24:46.889Z,101170.66
2024-05-09T09:26:52.311Z,101173.05
2024-05-09T09:29:00.350Z,101174.1
2024-05-09T09:31:06.414Z,101174.81
2024-05-09T09:33:12.525Z,101174.44
2024-05-09T09:35:18.626Z,101176.32
2024-05-09T09:37:24.060Z,101175.88
2024-05-09T09:39:29.520Z,101175.78
2024-05-09T09:41:35.146Z,101176.88
2024-05-09T09:43:40.551Z,101177.53
2024-05-09T09:45:45.968Z,101170.7
2024-05-09T09:47:51.628Z,101174.77
2024-05-09T09:49:57.214Z,101169.58
2024-05-09T09:52:02.787Z,101170.8
2024-05-09T09:54:08.253Z,101178.8
2024-05-09T09:56:13.684Z,101178.45
2024-05-09T09:58:19.568Z,101176.34
2024-05-09T10:00:34.134Z,101168.77
2024-05-09T10:02:40.329Z,101164.33
2024-05-09T10:04:46.244Z,101152.11
2024-05-09T10:06:52.169Z,101154.51
2024-05-09T10:08:57.702Z,101157.97
2024-05-09T10:11:03.302Z,101149.02
2024-05-09T10:13:09.799Z,101150.7
2024-05-09T10:15:15.404Z,101156.47
2024-05-09T10:17:21.006Z,101151.08
2024-05-09T10:19:26.947Z,101148.59
2024-05-09T10:21:32.747Z,101146.72
2024-05-09T10:23:38.298Z,101143.99
2024-05-09T10:25:43.640Z,101145.43
2024-05-09T10:27:48.967Z,101142.73
2024-05-09T10:29:54.509Z,101147.69
2024-05-09T10:31:59.849Z,101142.53
2024-05-09T10:34:05.808Z,101143.42
2024-05-09T10:36:11.513Z,101143.39
2024-05-09T10:38:16.896Z,101142.7
2024-05-09T10:40:31.430Z,101143.09
2024-05-09T10:42:37.786Z,101133.83
2024-05-09T10:44:43.343Z,101133.97
2024-05-09T10:46:48.808Z,101128.92
2024-05-09T10:48:54.476Z,101127.28
2024-05-09T10:51:00.200Z,101126.97
2024-05-09T10:53:05.614Z,101125.2
2024-05-09T10:55:11.011Z,101126.94
2024-05-09T10:57:16.403Z,101129.75
2024-05-09T10:59:21.897Z,101127.16
2024-05-09T11:01:27.484Z,101127.73
2024-05-09T11:03:33.582Z,101123.77
2024-05-09T11:05:40.243Z,101123.53
2024-05-09T11:07:45.855Z,101121.42
2024-05-09T11:09:51.325Z,101120.13
2024-05-09T11:11:56.952Z,101114.52
2024-05-09T11:14:02.481Z,101114.49
2024-05-09T11:16:08.320Z,101116.17
2024-05-09T11:18:13.945Z,101120.09
2024-05-09T11:20:29.557Z,101116.03
2024-05-09T11:22:39.203Z,101109.14
2024-05-09T11:24:44.773Z,101113.06
2024-05-09T11:26:50.287Z,101113.23
2024-05-09T11:28:55.631Z,101102.68
2024-05-09T11:31:01.330Z,101098.55
2024-05-09T11:33:06.771Z,101103.33
2024-05-09T11:35:12.361Z,101102.44
2024-05-09T11:37:18.050Z,101100.29
2024-05-09T11:39:23.705Z,101093.46
2024-05-09T11:41:29.082Z,101098.69
2024-05-09T11:43:34.750Z,101095.23
2024-05-09T11:45:40.183Z,101097.97
2024-05-09T11:47:45.785Z,101095.34
2024-05-09T11:49:51.525Z,101088.34
2024-05-09T11:51:57.127Z,101087.87
2024-05-09T11:54:02.557Z,101079.81
2024-05-09T11:56:08.117Z,101081.11
2024-05-09T11:58:13.756Z,101080.43
2024-05-09T12:00:29.357Z,101074.32
2024-05-09T12:02:42.388Z,101077.88
2024-05-09T12:04:48.041Z,101077.7
2024-05-09T12:06:53.914Z,101074.66
2024-05-09T12:08:59.372Z,101077.36
2024-05-09T12:11:05.111Z,101073.98
2024-05-09T12:13:10.711Z,101072.07
2024-05-09T12:15:16.128Z,101065.34
2024-05-09T12:17:22.067Z,101064.48
2024-05-09T12:19:27.647Z,101060.66
2024-05-09T12:21:33.174Z,101061.63
2024-05-09T12:23:38.679Z,101062.75
2024-05-09T12:25:44.124Z,101062.13
2024-05-09T12:27:49.710Z,101063.09
2024-05-09T12:29:55.106Z,101063.43
2024-05-09T12:32:00.679Z,101063.56
2024-05-09T12:34:06.363Z,101061.59
2024-05-09T12:36:12.123Z,101056.42
2024-05-09T12:38:17.479Z,101050.73
2024-05-09T12:40:36.570Z,101053.45
2024-05-09T12:42:44.042Z,101053.15
2024-05-09T12:44:49.454Z,101048.34
2024-05-09T12:46:54.816Z,101050.69
2024-05-09T12:49:00.920Z,101052.7
2024-05-09T12:51:06.846Z,101051.72
2024-05-09T12:53:12.246Z,101050.93
2024-05-09T12:55:17.962Z,101038.56
2024-05-09T12:57:23.455Z,101045.26
2024-05-09T12:59:28.790Z,101041.02
2024-05-09T13:01:34.715Z,101029.98
2024-05-09T13:03:40.710Z,101030.63
2024-05-09T13:05:47.372Z,101023.91
2024-05-09T13:07:52.912Z,101017.27
2024-05-09T13:09:58.472Z,101017.58
2024-05-09T13:12:04.096Z,101020.64
2024-05-09T13:14:09.543Z,101010.5
2024-05-09T13:16:14.950Z,101012.38
2024-05-09T13:18:20.770Z,101012.98
2024-05-09T13:20:35.339Z,101010.38
2024-05-09T13:22:41.747Z,101005.72
2024-05-09T13:24:47.147Z,101005.64
2024-05-09T13:26:52.678Z,101010.94
2024-05-09T13:28:58.075Z,101006.22
2024-05-09T13:31:03.478Z,101001.33
2024-05-09T13:33:09.510Z,101002.11
2024-05-09T13:35:16.788Z,101003.41
2024-05-09T13:37:22.290Z,100996.27
2024-05-09T13:39:27.739Z,100996.67
2024-05-09T13:41:33.170Z,100998.58
2024-05-09T13:43:38.689Z,100994.33
2024-05-09T13:45:44.445Z,100997.41
2024-05-09T13:47:50.144Z,100994.94
2024-05-09T13:49:55.864Z,100994.09
2024-05-09T13:52:01.378Z,100995.28
2024-05-09T13:54:06.889Z,100987.17
2024-05-09T13:56:12.177Z,100991.27
2024-05-09T13:58:17.923Z,100995.07
2024-05-09T14:00:43.766Z,100989.77
2024-05-09T14:02:54.067Z,100982.73
2024-05-09T14:04:59.913Z,100978.38
2024-05-09T14:07:05.559Z,100982.52
2024-05-09T14:09:11.110Z,100976.49
2024-05-09T14:11:17.112Z,100973
2024-05-09T14:13:22.869Z,100971.25
2024-05-09T14:15:28.475Z,100967.12
2024-05-09T14:17:34.240Z,100965.36
2024-05-09T14:19:39.695Z,100970.52
2024-05-09T14:21:45.353Z,100967.84
2024-05-09T14:23:50.854Z,100961.91
2024-05-09T14:25:56.431Z,100964.95
2024-05-09T14:28:02.185Z,100965.11
2024-05-09T14:30:18.057Z,100959.94
2024-05-09T14:32:40.963Z,100960.91
2024-05-09T14:34:46.686Z,100958.09
2024-05-09T14:36:52.568Z,100953.41
2024-05-09T14:38:58.118Z,100951.91
2024-05-09T14:41:03.621Z,100948.97
2024-05-09T14:43:09.220Z,100948.88
2024-05-09T14:45:15.062Z,100945.86
2024-05-09T14:47:20.616Z,100945.77
2024-05-09T14:49:26.188Z,100943.63
2024-05-09T14:51:31.751Z,100939.72
2024-05-09T14:53:37.224Z,100937.92
2024-05-09T14:55:44.720Z,100929.93
2024-05-09T14:57:50.167Z,100931.64
2024-05-09T14:59:55.703Z,100923.9
2024-05-09T15:02:01.400Z,100931.05
2024-05-09T15:04:07.153Z,100927.53
2024-05-09T15:06:12.785Z,100927.77
2024-05-09T15:08:18.726Z,100928.25
2024-05-09T15:10:35.815Z,100924.63
2024-05-09T15:12:42.551Z,100924.42
2024-05-09T15:14:48.222Z,100938.03
2024-05-09T15:16:53.771Z,100929.43
2024-05-09T15:18:59.590Z,100926.56
2024-05-09T15:21:05.360Z,100928.63
2024-05-09T15:23:10.858Z,100924.53
2024-05-09T15:25:16.362Z,100923
2024-05-09T15:27:22.166Z,100919.99
2024-05-09T15:29:27.602Z,100911.22
2024-05-09T15:31:33.009Z,100917.78
2024-05-09T15:33:38.904Z,100908.32
2024-05-09T15:35:44.472Z,100904.4
2024-05-09T15:37:49.870Z,100901.8
2024-05-09T15:39:55.483Z,100899.17
2024-05-09T15:42:00.901Z,100896.82
2024-05-09T15:44:06.345Z,100894.95
2024-05-09T15:46:11.771Z,100897.41
2024-05-09T15:48:17.384Z,100888.42
2024-05-09T15:50:38.873Z,100884.56
2024-05-09T15:52:47.458Z,100883.13
2024-05-09T15:54:52.952Z,100886.79
2024-05-09T15:56:58.640Z,100881.8
2024-05-09T15:59:04.100Z,100878.63
2024-05-09T16:01:09.691Z,100883.06
2024-05-09T16:03:16.573Z,100881.4
2024-05-09T16:05:22.454Z,100878.94
2024-05-09T16:07:28.198Z,100874.75
2024-05-09T16:09:33.652Z,100874.92
2024-05-09T16:11:39.194Z,100872.94
2024-05-09T16:13:44.628Z,100875.88
2024-05-09T16:15:50.579Z,100876.25
2024-05-09T16:17:59.008Z,100873.59
2024-05-09T16:20:12.292Z,100873.18
2024-05-09T16:22:33.215Z,100869.08
2024-05-09T16:24:38.661Z,100868.88
2024-05-09T16:26:44.195Z,100867.69
2024-05-09T16:28:49.840Z,100861.06
2024-05-09T16:30:55.501Z,100864.69
2024-05-09T16:33:01.274Z,100864.14
2024-05-09T16:35:07.702Z,100865.23
2024-05-09T16:37:13.349Z,100866.74
2024-05-09T16:39:18.926Z,100863.42
2024-05-09T16:41:24.399Z,100868.3
2024-05-09T16:43:29.951Z,100863.24
2024-05-09T16:45:35.886Z,100864.77
2024-05-09T16:47:42.123Z,100864.39
2024-05-09T16:49:47.830Z,100862.16
2024-05-09T16:51:53.249Z,100865.84
2024-05-09T16:53:58.992Z,100866.75
2024-05-09T16:56:04.359Z,100867.73
2024-05-09T16:58:10.188Z,100864.86
2024-05-09T17:00:34.438Z,100864.75
2024-05-09T17:02:48.186Z,100865.59
2024-05-09T17:04:53.732Z,100861.23
2024-05-09T17:06:59.243Z,100864.53
2024-05-09T17:09:15.551Z,100862.52
2024-05-09T17:11:24.520Z,100863.2
2024-05-09T17:13:30.273Z,100862.72
2024-05-09T17:15:36.607Z,100864.33
2024-05-09T17:17:42.893Z,100865.92
2024-05-09T17:19:48.450Z,100865.55
2024-05-09T17:21:53.917Z,100864.79
2024-05-09T17:23:59.540Z,100864.62
2024-05-09T17:26:05.084Z,100869.02
2024-05-09T17:28:10.850Z,100866.16
2024-05-09T17:30:29.290Z,100864.41
2024-05-09T17:32:43.913Z,100865.19
2024-05-09T17:34:49.480Z,100865.64
2024-05-09T17:36:55.116Z,100867.34
2024-05-09T17:39:00.552Z,100866.87
2024-05-09T17:41:06.099Z,100864.99
2024-05-09T17:43:12.530Z,100860.41
2024-05-09T17:45:17.890Z,100860.18
2024-05-09T17:47:23.511Z,100862.3
2024-05-09T17:49:29.349Z,100861.92
2024-05-09T17:51:35.242Z,100860.41
2024-05-09T17:53:40.689Z,100863.71
2024-05-09T17:55:46.238Z,100860.25
2024-05-09T17:57:51.664Z,100864.2
2024-05-09T17:59:57.211Z,100864.67
2024-05-09T18:02:03.160Z,100864.19
2024-05-09T18:04:09.497Z,100866.1
2024-05-09T18:06:15.139Z,100864.13
2024-05-09T18:08:20.617Z,100864.52
2024-05-09T18:10:38.540Z,100866.64
2024-05-09T18:12:46.183Z,100866.53
2024-05-09T18:14:51.576Z,100865.75
2024-05-09T18:16:57.115Z,100865.95
2024-05-09T18:19:02.894Z,100867.87
2024-05-09T18:21:08.721Z,100868
2024-05-09T18:23:14.602Z,100870.22
2024-05-09T18:25:22.913Z,100866.91
2024-05-09T18:27:28.435Z,100865.82
2024-05-09T18:29:33.759Z,100872.81
2024-05-09T18:31:39.260Z,100874.59
2024-05-09T18:33:45.185Z,100876.8
2024-05-09T18:35:50.911Z,100877.55
2024-05-09T18:37:56.363Z,100881.3
2024-05-09T18:40:02.059Z,100885.16
2024-05-09T18:42:08.388Z,100886.28
2024-05-09T18:44:13.786Z,100883.69
2024-05-09T18:46:19.242Z,100883.98
2024-05-09T18:48:24.897Z,100885.05
2024-05-09T18:50:40.044Z,100885.25
2024-05-09T18:52:46.708Z,100888.39
2024-05-09T18:54:52.159Z,100888.34
2024-05-09T18:56:57.601Z,100893.47
2024-05-09T18:59:02.948Z,100894.81
2024-05-09T19:01:08.856Z,100900.78
2024-05-09T19:03:16.415Z,100898.27
2024-05-09T19:05:22.819Z,100900.45
2024-05-09T19:07:28.697Z,100905.17
2024-05-09T19:09:34.146Z,100902.3
2024-05-09T19:11:39.707Z,100905.17
2024-05-09T19:13:45.267Z,100904.86
2024-05-09T19:15:50.799Z,100904.11
2024-05-09T19:17:56.539Z,100904.04
2024-05-09T19:20:02.843Z,100904.68
2024-05-09T19:22:10.369Z,100906.96
2024-05-09T19:24:15.856Z,100905.83
2024-05-09T19:26:21.338Z,100905.83
2024-05-09T19:28:27.139Z,100910.55
2024-05-09T19:30:42.610Z,100911.64
2024-05-09T19:32:49.023Z,100910.65
2024-05-09T19:34:54.837Z,100913.2
2024-05-09T19:37:00.490Z,100912.31
2024-05-09T19:39:06.038Z,100915.87
2024-05-09T19:41:11.401Z,100919.66
2024-05-09T19:43:17.171Z,100918.98
2024-05-09T19:45:22.900Z,100917.99
2024-05-09T19:47:28.787Z,100920.32
2024-05-09T19:49:34.757Z,100918.81
2024-05-09T19:51:40.449Z,100917.3
2024-05-09T19:53:45.894Z,100921.66
2024-05-09T19:55:51.444Z,100925.48
2024-05-09T19:57:57.202Z,100925.16
2024-05-09T20:00:09.643Z,100922.02
2024-05-09T20:02:26.583Z,100922.3
2024-05-09T20:04:32.468Z,100923.81
2024-05-09T20:06:38.436Z,100924.19
2024-05-09T20:08:43.850Z,100920.81
2024-05-09T20:10:49.577Z,100920.82
2024-05-09T20:12:55.345Z,100924.88
2024-05-09T20:15:00.862Z,100925.56
2024-05-09T20:17:06.217Z,100920.92
2024-05-09T20:19:11.830Z,100923.17
2024-05-09T20:21:17.614Z,100920.83
2024-05-09T20:23:22.947Z,100920.59
2024-05-09T20:25:28.407Z,100919.8
2024-05-09T20:27:33.874Z,100917.65
2024-05-09T20:29:39.272Z,100921.75
2024-05-09T20:31:44.807Z,100919.94
2024-05-09T20:33:50.261Z,100917.14
2024-05-09T20:35:55.802Z,100918.23
2024-05-09T20:38:04.267Z,100914.2
2024-05-09T20:40:21.624Z,100916.39
2024-05-09T20:42:40.082Z,100918.75
2024-05-09T20:44:45.615Z,100913.25
2024-05-09T20:46:51.010Z,100916.53
2024-05-09T20:48:56.778Z,100915.61
2024-05-09T20:51:02.451Z,100914.01
2024-05-09T20:53:07.889Z,100915.03
2024-05-09T20:55:13.808Z,100919.13
2024-05-09T20:57:19.345Z,100918.89
2024-05-09T20:59:24.723Z,100921.73
2024-05-09T21:01:30.130Z,100920.73
2024-05-09T21:03:36.046Z,100921.7
2024-05-09T21:05:42.752Z,100922.62
2024-05-09T21:07:48.635Z,100926
2024-05-09T21:09:54.044Z,100922.14
2024-05-09T21:11:59.454Z,100919.58
2024-05-09T21:14:04.955Z,100921.97
2024-05-09T21:16:10.473Z,100921.09
2024-05-09T21:18:16.134Z,100918.63
2024-05-09T21:20:30.656Z,100921.53
2024-05-09T21:22:37.985Z,100919.69
2024-05-09T21:24:43.603Z,100917.84
2024-05-09T21:26:49.272Z,100919.92
2024-05-09T21:28:54.723Z,100921.36
2024-05-09T21:31:00.177Z,100919.66
2024-05-09T21:33:05.960Z,100916.14
2024-05-09T21:35:11.755Z,100919.34
2024-05-09T21:37:17.298Z,100918.59
2024-05-09T21:39:22.947Z,100922.39
2024-05-09T21:41:28.283Z,100915.56
2024-05-09T21:43:33.631Z,100916.31
2024-05-09T21:45:39.392Z,100918.33
2024-05-09T21:47:45.308Z,100914.81
2024-05-09T21:49:50.859Z,100915.73
2024-05-09T21:51:56.411Z,100915.49
2024-05-09T21:54:01.796Z,100914.74
2024-05-09T21:56:07.187Z,100916.28
2024-05-09T21:58:12.863Z,100916.72
2024-05-09T22:00:36.286Z,100915.97
2024-05-09T22:02:44.063Z,100916.14
2024-05-09T22:04:49.990Z,100913.11
2024-05-09T22:06:55.666Z,100910.61
2024-05-09T22:09:01.233Z,100908.36
2024-05-09T22:11:06.962Z,100909.08
2024-05-09T22:13:12.866Z,100909.83
2024-05-09T22:15:18.279Z,100909.59
2024-05-09T22:17:23.958Z,100908.53
2024-05-09T22:19:29.596Z,100909.83
2024-05-09T22:21:35.311Z,100909.15
2024-05-09T22:23:41.002Z,100910.23
2024-05-09T22:25:46.497Z,100912.86
2024-05-09T22:27:51.818Z,100910.61
2024-05-09T22:29:57.271Z,100917.81
2024-05-09T22:32:02.749Z,100915.94
2024-05-09T22:34:08.628Z,100917.98
2024-05-09T22:36:14.415Z,100915.19
2024-05-09T22:38:19.874Z,100917.03
2024-05-09T22:40:43.181Z,100912.25
2024-05-09T22:42:54.431Z,100912.08
2024-05-09T22:45:00.032Z,100912.48
2024-05-09T22:47:05.500Z,100912.05
2024-05-09T22:49:11.016Z,100911.95
2024-05-09T22:51:16.666Z,100912.28
2024-05-09T22:53:22.124Z,100912.28
2024-05-09T22:55:27.685Z,100907.95
2024-05-09T22:57:33.204Z,100911.94
2024-05-09T22:59:38.743Z,100910.03
2024-05-09T23:01:44.419Z,100909.41
2024-05-09T23:03:50.430Z,100906.82
2024-05-09T23:05:56.084Z,100902.31
2024-05-09T23:08:01.472Z,100906.38
2024-05-09T23:10:21.758Z,100903.65
2024-05-09T23:12:41.158Z,100900.13
2024-05-09T23:14:46.938Z,100897.98
2024-05-09T23:16:52.401Z,100896.69
2024-05-09T23:18:58.111Z,100892.16
2024-05-09T23:21:03.665Z,100891.16
2024-05-09T23:23:10.228Z,100888.23
2024-05-09T23:25:17.070Z,100892.7
2024-05-09T23:27:22.691Z,100885.36
2024-05-09T23:29:28.103Z,100887
2024-05-09T23:31:33.442Z,100888.27
2024-05-09T23:33:39.408Z,100885.19
2024-05-09T23:35:46.203Z,100881.23
2024-05-09T23:37:51.584Z,100890.34
2024-05-09T23:39:57.240Z,100886.41
2024-05-09T23:42:02.781Z,100889.21
2024-05-09T23:44:08.078Z,100881.06
2024-05-09T23:46:13.752Z,100882.02
2024-05-09T23:48:19.460Z,100882.25
2024-05-09T23:50:36.740Z,100879.22
2024-05-09T23:52:45.198Z,100881.46
2024-05-09T23:54:50.610Z,100881.77
2024-05-09T23:56:56.120Z,100884.26
2024-05-09T23:59:01.558Z,100877.3
